sensor_id;sensor_type;location;lat;lon;timestamp;P1;durP1;ratioP1;P2;durP2;ratioP2
20880;SDS011;10600;53.096;8.802;2022-12-29T00:00:49;8.02;;;7.32;;
20880;SDS011;10600;53.096;8.802;2022-12-29T00:01:49;8.63;;;7.75;;
20880;SDS011;10600;53.096;8.802;2022-12-29T00:02:51;8.45;;;7.65;;
20880;SDS011;10600;53.096;8.802;2022-12-29T00:03:52;8.90;;;8.10;;
20880;SDS011;10600;53.096;8.802;2022-12-29T00:04:53;9.13;;;7.88;;
20880;SDS011;10600;53.096;8.802;2022-12-29T00:05:54;8.63;;;7.60;;
20880;SDS011;10600;53.096;8.802;2022-12-29T00:06:55;8.35;;;7.57;;
20880;SDS011;10600;53.096;8.802;2022-12-29T00:07:56;10.20;;;8.43;;
20880;SDS011;10600;53.096;8.802;2022-12-29T00:08:57;8.45;;;7.55;;
20880;SDS011;10600;53.096;8.802;2022-12-29T00:09:58;8.70;;;7.80;;
20880;SDS011;10600;53.096;8.802;2022-12-29T00:10:58;8.75;;;7.80;;
20880;SDS011;10600;53.096;8.802;2022-12-29T00:11:59;9.52;;;8.05;;
20880;SDS011;10600;53.096;8.802;2022-12-29T00:13:01;9.65;;;8.60;;
20880;SDS011;10600;53.096;8.802;2022-12-29T00:14:20;9.13;;;8.18;;
20880;SDS011;10600;53.096;8.802;2022-12-29T00:15:39;8.63;;;7.50;;
20880;SDS011;10600;53.096;8.802;2022-12-29T00:16:41;8.77;;;7.57;;
20880;SDS011;10600;53.096;8.802;2022-12-29T00:17:43;8.38;;;6.95;;
20880;SDS011;10600;53.096;8.802;2022-12-29T00:18:43;9.55;;;7.88;;
20880;SDS011;10600;53.096;8.802;2022-12-29T00:19:44;9.07;;;7.65;;
20880;SDS011;10600;53.096;8.802;2022-12-29T00:21:03;9.50;;;8.45;;
20880;SDS011;10600;53.096;8.802;2022-12-29T00:22:23;8.82;;;7.65;;
20880;SDS011;10600;53.096;8.802;2022-12-29T00:23:43;8.73;;;7.82;;
20880;SDS011;10600;53.096;8.802;2022-12-29T00:25:02;12.07;;;8.05;;
20880;SDS011;10600;53.096;8.802;2022-12-29T00:26:22;8.73;;;7.82;;
20880;SDS011;10600;53.096;8.802;2022-12-29T00:27:41;9.40;;;7.88;;
20880;SDS011;10600;53.096;8.802;2022-12-29T00:29:00;8.73;;;7.85;;
20880;SDS011;10600;53.096;8.802;2022-12-29T00:30:21;9.10;;;8.13;;
20880;SDS011;10600;53.096;8.802;2022-12-29T00:31:41;8.82;;;7.90;;
20880;SDS011;10600;53.096;8.802;2022-12-29T00:33:09;9.48;;;8.57;;
20880;SDS011;10600;53.096;8.802;2022-12-29T00:34:32;9.18;;;8.30;;
20880;SDS011;10600;53.096;8.802;2022-12-29T00:35:52;9.57;;;8.68;;
20880;SDS011;10600;53.096;8.802;2022-12-29T00:36:56;9.75;;;8.75;;
20880;SDS011;10600;53.096;8.802;2022-12-29T00:37:58;10.05;;;9.07;;
20880;SDS011;10600;53.096;8.802;2022-12-29T00:39:21;9.63;;;8.63;;
20880;SDS011;10600;53.096;8.802;2022-12-29T00:40:40;11.23;;;9.52;;
20880;SDS011;10600;53.096;8.802;2022-12-29T00:42:03;9.65;;;8.57;;
20880;SDS011;10600;53.096;8.802;2022-12-29T00:43:40;11.05;;;9.93;;
20880;SDS011;10600;53.096;8.802;2022-12-29T00:44:59;11.82;;;10.05;;
20880;SDS011;10600;53.096;8.802;2022-12-29T00:46:00;10.70;;;9.60;;
20880;SDS011;10600;53.096;8.802;2022-12-29T00:47:00;11.07;;;9.82;;
20880;SDS011;10600;53.096;8.802;2022-12-29T00:48:04;12.00;;;10.20;;
20880;SDS011;10600;53.096;8.802;2022-12-29T00:49:05;13.18;;;9.82;;
20880;SDS011;10600;53.096;8.802;2022-12-29T00:50:25;10.93;;;9.82;;
20880;SDS011;10600;53.096;8.802;2022-12-29T00:51:26;11.57;;;9.82;;
20880;SDS011;10600;53.096;8.802;2022-12-29T00:52:27;11.70;;;10.50;;
20880;SDS011;10600;53.096;8.802;2022-12-29T00:53:27;12.57;;;11.27;;
20880;SDS011;10600;53.096;8.802;2022-12-29T00:54:31;12.00;;;10.75;;
20880;SDS011;10600;53.096;8.802;2022-12-29T00:55:36;12.70;;;10.90;;
20880;SDS011;10600;53.096;8.802;2022-12-29T00:56:37;14.60;;;11.57;;
20880;SDS011;10600;53.096;8.802;2022-12-29T00:57:38;12.10;;;10.85;;
20880;SDS011;10600;53.096;8.802;2022-12-29T00:58:39;16.25;;;12.90;;
20880;SDS011;10600;53.096;8.802;2022-12-29T00:59:40;14.98;;;11.68;;
20880;SDS011;10600;53.096;8.802;2022-12-29T01:00:41;13.55;;;12.15;;
20880;SDS011;10600;53.096;8.802;2022-12-29T01:01:42;12.93;;;11.30;;
20880;SDS011;10600;53.096;8.802;2022-12-29T01:02:43;13.85;;;12.43;;
20880;SDS011;10600;53.096;8.802;2022-12-29T01:03:43;13.13;;;11.70;;
20880;SDS011;10600;53.096;8.802;2022-12-29T01:04:44;13.90;;;12.43;;
20880;SDS011;10600;53.096;8.802;2022-12-29T01:05:45;15.10;;;12.70;;
20880;SDS011;10600;53.096;8.802;2022-12-29T01:06:46;13.25;;;11.85;;
20880;SDS011;10600;53.096;8.802;2022-12-29T01:07:46;14.82;;;12.23;;
20880;SDS011;10600;53.096;8.802;2022-12-29T01:08:47;13.80;;;12.40;;
20880;SDS011;10600;53.096;8.802;2022-12-29T01:10:07;13.85;;;11.65;;
20880;SDS011;10600;53.096;8.802;2022-12-29T01:11:12;13.88;;;11.20;;
20880;SDS011;10600;53.096;8.802;2022-12-29T01:12:13;12.57;;;11.27;;
20880;SDS011;10600;53.096;8.802;2022-12-29T01:13:13;12.57;;;11.27;;
20880;SDS011;10600;53.096;8.802;2022-12-29T01:14:14;12.30;;;11.00;;
20880;SDS011;10600;53.096;8.802;2022-12-29T01:15:15;13.13;;;11.07;;
20880;SDS011;10600;53.096;8.802;2022-12-29T01:16:16;11.98;;;10.63;;
20880;SDS011;10600;53.096;8.802;2022-12-29T01:17:16;12.68;;;11.13;;
20880;SDS011;10600;53.096;8.802;2022-12-29T01:18:17;12.43;;;10.48;;
20880;SDS011;10600;53.096;8.802;2022-12-29T01:19:18;12.40;;;10.80;;
20880;SDS011;10600;53.096;8.802;2022-12-29T01:20:19;12.32;;;10.02;;
20880;SDS011;10600;53.096;8.802;2022-12-29T01:21:20;11.27;;;10.15;;
20880;SDS011;10600;53.096;8.802;2022-12-29T01:22:21;10.25;;;9.02;;
20880;SDS011;10600;53.096;8.802;2022-12-29T01:23:22;10.88;;;9.70;;
20880;SDS011;10600;53.096;8.802;2022-12-29T01:24:22;12.65;;;10.25;;
20880;SDS011;10600;53.096;8.802;2022-12-29T01:25:25;10.30;;;8.68;;
20880;SDS011;10600;53.096;8.802;2022-12-29T01:26:25;12.75;;;9.80;;
20880;SDS011;10600;53.096;8.802;2022-12-29T01:27:26;10.40;;;9.30;;
20880;SDS011;10600;53.096;8.802;2022-12-29T01:28:27;12.07;;;9.02;;
20880;SDS011;10600;53.096;8.802;2022-12-29T01:29:27;10.15;;;9.07;;
20880;SDS011;10600;53.096;8.802;2022-12-29T01:30:28;9.85;;;8.85;;
20880;SDS011;10600;53.096;8.802;2022-12-29T01:31:29;9.88;;;8.88;;
20880;SDS011;10600;53.096;8.802;2022-12-29T01:32:29;9.90;;;8.90;;
20880;SDS011;10600;53.096;8.802;2022-12-29T01:33:30;9.15;;;8.20;;
20880;SDS011;10600;53.096;8.802;2022-12-29T01:34:31;10.10;;;8.68;;
20880;SDS011;10600;53.096;8.802;2022-12-29T01:35:31;10.38;;;9.38;;
20880;SDS011;10600;53.096;8.802;2022-12-29T01:36:32;10.15;;;8.77;;
20880;SDS011;10600;53.096;8.802;2022-12-29T01:37:33;10.30;;;9.25;;
20880;SDS011;10600;53.096;8.802;2022-12-29T01:38:34;10.85;;;8.52;;
20880;SDS011;10600;53.096;8.802;2022-12-29T01:39:36;9.55;;;8.60;;
20880;SDS011;10600;53.096;8.802;2022-12-29T01:40:42;9.27;;;8.43;;
20880;SDS011;10600;53.096;8.802;2022-12-29T01:41:44;9.18;;;8.27;;
20880;SDS011;10600;53.096;8.802;2022-12-29T01:42:44;9.02;;;8.10;;
20880;SDS011;10600;53.096;8.802;2022-12-29T01:44:57;10.20;;;9.20;;
20880;SDS011;10600;53.096;8.802;2022-12-29T01:46:02;10.20;;;9.10;;
20880;SDS011;10600;53.096;8.802;2022-12-29T01:47:03;9.05;;;8.13;;
20880;SDS011;10600;53.096;8.802;2022-12-29T01:48:04;9.70;;;8.73;;
20880;SDS011;10600;53.096;8.802;2022-12-29T01:50:26;9.05;;;8.10;;
20880;SDS011;10600;53.096;8.802;2022-12-29T01:52:56;9.82;;;8.80;;
20880;SDS011;10600;53.096;8.802;2022-12-29T01:53:59;11.80;;;8.73;;
20880;SDS011;10600;53.096;8.802;2022-12-29T01:55:05;10.23;;;9.23;;
20880;SDS011;10600;53.096;8.802;2022-12-29T01:56:07;9.82;;;8.82;;
20880;SDS011;10600;53.096;8.802;2022-12-29T01:57:55;10.30;;;9.13;;
20880;SDS011;10600;53.096;8.802;2022-12-29T01:58:39;9.77;;;8.88;;
20880;SDS011;10600;53.096;8.802;2022-12-29T01:59:46;10.98;;;9.15;;
20880;SDS011;10600;53.096;8.802;2022-12-29T02:00:55;10.18;;;9.18;;
20880;SDS011;10600;53.096;8.802;2022-12-29T02:01:56;10.13;;;9.13;;
20880;SDS011;10600;53.096;8.802;2022-12-29T02:02:57;9.25;;;8.35;;
20880;SDS011;10600;53.096;8.802;2022-12-29T02:03:58;10.25;;;8.80;;
20880;SDS011;10600;53.096;8.802;2022-12-29T02:04:59;10.23;;;9.13;;
20880;SDS011;10600;53.096;8.802;2022-12-29T02:07:25;9.75;;;8.75;;
20880;SDS011;10600;53.096;8.802;2022-12-29T02:08:28;9.77;;;8.70;;
20880;SDS011;10600;53.096;8.802;2022-12-29T02:09:29;9.60;;;8.70;;
20880;SDS011;10600;53.096;8.802;2022-12-29T02:10:31;10.57;;;9.05;;
20880;SDS011;10600;53.096;8.802;2022-12-29T02:11:34;9.57;;;8.52;;
20880;SDS011;10600;53.096;8.802;2022-12-29T02:12:36;9.43;;;8.13;;
20880;SDS011;10600;53.096;8.802;2022-12-29T02:13:37;9.68;;;8.70;;
20880;SDS011;10600;53.096;8.802;2022-12-29T02:14:37;11.05;;;9.10;;
20880;SDS011;10600;53.096;8.802;2022-12-29T02:16:57;9.20;;;8.40;;
20880;SDS011;10600;53.096;8.802;2022-12-29T02:18:22;9.93;;;8.68;;
20880;SDS011;10600;53.096;8.802;2022-12-29T02:21:53;9.82;;;8.93;;
20880;SDS011;10600;53.096;8.802;2022-12-29T02:23:48;11.00;;;9.05;;
20880;SDS011;10600;53.096;8.802;2022-12-29T02:29:05;9.75;;;8.80;;
20880;SDS011;10600;53.096;8.802;2022-12-29T02:31:25;11.25;;;7.90;;
20880;SDS011;10600;53.096;8.802;2022-12-29T02:35:25;9.07;;;8.27;;
20880;SDS011;10600;53.096;8.802;2022-12-29T02:40:57;8.57;;;7.68;;
20880;SDS011;10600;53.096;8.802;2022-12-29T02:43:21;8.38;;;7.57;;
20880;SDS011;10600;53.096;8.802;2022-12-29T02:44:28;9.20;;;8.32;;
20880;SDS011;10600;53.096;8.802;2022-12-29T02:45:36;8.55;;;7.80;;
20880;SDS011;10600;53.096;8.802;2022-12-29T02:47:00;10.40;;;7.95;;
20880;SDS011;10600;53.096;8.802;2022-12-29T02:48:10;9.10;;;8.30;;
20880;SDS011;10600;53.096;8.802;2022-12-29T02:49:33;9.80;;;8.75;;
20880;SDS011;10600;53.096;8.802;2022-12-29T02:50:48;9.18;;;8.27;;
20880;SDS011;10600;53.096;8.802;2022-12-29T02:52:03;8.43;;;7.70;;
20880;SDS011;10600;53.096;8.802;2022-12-29T02:53:14;8.57;;;7.78;;
20880;SDS011;10600;53.096;8.802;2022-12-29T02:54:18;9.93;;;8.50;;
20880;SDS011;10600;53.096;8.802;2022-12-29T02:55:38;8.95;;;8.02;;
20880;SDS011;10600;53.096;8.802;2022-12-29T02:56:41;9.32;;;8.48;;
20880;SDS011;10600;53.096;8.802;2022-12-29T02:57:41;9.02;;;8.07;;
20880;SDS011;10600;53.096;8.802;2022-12-29T02:58:42;8.93;;;8.20;;
20880;SDS011;10600;53.096;8.802;2022-12-29T02:59:43;9.73;;;8.93;;
20880;SDS011;10600;53.096;8.802;2022-12-29T03:00:56;9.80;;;8.82;;
20880;SDS011;10600;53.096;8.802;2022-12-29T03:07:14;9.57;;;8.40;;
20880;SDS011;10600;53.096;8.802;2022-12-29T03:11:22;9.00;;;8.20;;
20880;SDS011;10600;53.096;8.802;2022-12-29T03:12:53;8.68;;;7.88;;
20880;SDS011;10600;53.096;8.802;2022-12-29T03:14:26;8.52;;;7.80;;
20880;SDS011;10600;53.096;8.802;2022-12-29T03:15:54;8.82;;;8.02;;
20880;SDS011;10600;53.096;8.802;2022-12-29T03:17:07;7.00;;;6.40;;
20880;SDS011;10600;53.096;8.802;2022-12-29T03:18:15;7.45;;;6.82;;
20880;SDS011;10600;53.096;8.802;2022-12-29T03:19:30;7.50;;;6.85;;
20880;SDS011;10600;53.096;8.802;2022-12-29T03:20:38;6.68;;;6.15;;
20880;SDS011;10600;53.096;8.802;2022-12-29T03:21:44;6.72;;;6.15;;
20880;SDS011;10600;53.096;8.802;2022-12-29T03:23:08;7.20;;;6.60;;
20880;SDS011;10600;53.096;8.802;2022-12-29T03:24:09;6.50;;;5.90;;
20880;SDS011;10600;53.096;8.802;2022-12-29T03:25:15;6.15;;;5.50;;
20880;SDS011;10600;53.096;8.802;2022-12-29T03:26:24;6.50;;;5.90;;
20880;SDS011;10600;53.096;8.802;2022-12-29T03:27:29;6.20;;;5.60;;
20880;SDS011;10600;53.096;8.802;2022-12-29T03:28:36;6.07;;;5.47;;
20880;SDS011;10600;53.096;8.802;2022-12-29T03:29:46;5.68;;;5.13;;
20880;SDS011;10600;53.096;8.802;2022-12-29T03:30:53;5.93;;;5.43;;
20880;SDS011;10600;53.096;8.802;2022-12-29T03:31:55;5.72;;;5.22;;
20880;SDS011;10600;53.096;8.802;2022-12-29T03:32:59;4.95;;;4.45;;
20880;SDS011;10600;53.096;8.802;2022-12-29T03:34:02;5.05;;;4.65;;
20880;SDS011;10600;53.096;8.802;2022-12-29T03:35:05;5.18;;;4.72;;
20880;SDS011;10600;53.096;8.802;2022-12-29T03:36:11;4.88;;;4.50;;
20880;SDS011;10600;53.096;8.802;2022-12-29T03:37:18;5.13;;;4.55;;
20880;SDS011;10600;53.096;8.802;2022-12-29T03:39:59;4.70;;;4.30;;
20880;SDS011;10600;53.096;8.802;2022-12-29T03:41:00;4.90;;;4.50;;
20880;SDS011;10600;53.096;8.802;2022-12-29T03:42:06;5.28;;;4.30;;
20880;SDS011;10600;53.096;8.802;2022-12-29T03:43:20;6.35;;;4.70;;
20880;SDS011;10600;53.096;8.802;2022-12-29T03:44:21;4.53;;;4.13;;
20880;SDS011;10600;53.096;8.802;2022-12-29T03:45:30;5.18;;;4.50;;
20880;SDS011;10600;53.096;8.802;2022-12-29T03:46:31;5.63;;;5.03;;
20880;SDS011;10600;53.096;8.802;2022-12-29T03:47:32;5.80;;;5.20;;
20880;SDS011;10600;53.096;8.802;2022-12-29T03:48:32;5.55;;;5.05;;
20880;SDS011;10600;53.096;8.802;2022-12-29T03:49:33;5.15;;;4.70;;
20880;SDS011;10600;53.096;8.802;2022-12-29T03:50:34;4.90;;;4.45;;
20880;SDS011;10600;53.096;8.802;2022-12-29T03:51:34;5.15;;;4.65;;
20880;SDS011;10600;53.096;8.802;2022-12-29T03:52:35;5.43;;;4.93;;
20880;SDS011;10600;53.096;8.802;2022-12-29T03:53:36;4.95;;;4.55;;
20880;SDS011;10600;53.096;8.802;2022-12-29T03:54:36;5.28;;;4.63;;
20880;SDS011;10600;53.096;8.802;2022-12-29T03:55:37;5.10;;;4.70;;
20880;SDS011;10600;53.096;8.802;2022-12-29T03:56:38;5.18;;;4.68;;
20880;SDS011;10600;53.096;8.802;2022-12-29T03:57:38;4.80;;;4.40;;
20880;SDS011;10600;53.096;8.802;2022-12-29T03:58:39;5.43;;;4.85;;
20880;SDS011;10600;53.096;8.802;2022-12-29T03:59:40;5.63;;;5.13;;
20880;SDS011;10600;53.096;8.802;2022-12-29T04:00:40;5.47;;;4.93;;
20880;SDS011;10600;53.096;8.802;2022-12-29T04:01:41;6.13;;;5.05;;
20880;SDS011;10600;53.096;8.802;2022-12-29T04:02:42;6.63;;;5.75;;
20880;SDS011;10600;53.096;8.802;2022-12-29T04:03:42;5.75;;;5.00;;
20880;SDS011;10600;53.096;8.802;2022-12-29T04:04:43;5.47;;;4.90;;
20880;SDS011;10600;53.096;8.802;2022-12-29T04:05:43;5.28;;;4.78;;
20880;SDS011;10600;53.096;8.802;2022-12-29T04:06:44;6.00;;;5.32;;
20880;SDS011;10600;53.096;8.802;2022-12-29T04:07:45;6.30;;;5.65;;
20880;SDS011;10600;53.096;8.802;2022-12-29T04:08:45;6.15;;;5.65;;
20880;SDS011;10600;53.096;8.802;2022-12-29T04:09:46;5.95;;;5.45;;
20880;SDS011;10600;53.096;8.802;2022-12-29T04:10:48;6.40;;;5.80;;
20880;SDS011;10600;53.096;8.802;2022-12-29T04:11:49;6.65;;;5.97;;
20880;SDS011;10600;53.096;8.802;2022-12-29T04:12:50;6.90;;;6.30;;
20880;SDS011;10600;53.096;8.802;2022-12-29T04:13:50;7.05;;;6.00;;
20880;SDS011;10600;53.096;8.802;2022-12-29T04:14:51;6.65;;;5.97;;
20880;SDS011;10600;53.096;8.802;2022-12-29T04:15:51;7.95;;;7.15;;
20880;SDS011;10600;53.096;8.802;2022-12-29T04:16:52;8.35;;;7.50;;
20880;SDS011;10600;53.096;8.802;2022-12-29T04:17:53;7.72;;;7.03;;
20880;SDS011;10600;53.096;8.802;2022-12-29T04:18:53;8.13;;;7.32;;
20880;SDS011;10600;53.096;8.802;2022-12-29T04:19:54;8.43;;;7.63;;
20880;SDS011;10600;53.096;8.802;2022-12-29T04:21:14;8.32;;;7.07;;
20880;SDS011;10600;53.096;8.802;2022-12-29T04:22:15;9.48;;;7.90;;
20880;SDS011;10600;53.096;8.802;2022-12-29T04:23:16;9.48;;;8.55;;
20880;SDS011;10600;53.096;8.802;2022-12-29T04:24:16;9.57;;;8.57;;
20880;SDS011;10600;53.096;8.802;2022-12-29T04:25:17;10.32;;;9.32;;
20880;SDS011;10600;53.096;8.802;2022-12-29T04:26:18;9.93;;;8.52;;
20880;SDS011;10600;53.096;8.802;2022-12-29T04:27:18;9.70;;;8.70;;
20880;SDS011;10600;53.096;8.802;2022-12-29T04:28:19;9.38;;;8.48;;
20880;SDS011;10600;53.096;8.802;2022-12-29T04:29:20;9.15;;;7.85;;
20880;SDS011;10600;53.096;8.802;2022-12-29T04:30:20;9.15;;;8.27;;
20880;SDS011;10600;53.096;8.802;2022-12-29T04:31:21;9.55;;;8.63;;
20880;SDS011;10600;53.096;8.802;2022-12-29T04:32:22;9.13;;;8.25;;
20880;SDS011;10600;53.096;8.802;2022-12-29T04:33:22;9.15;;;8.13;;
20880;SDS011;10600;53.096;8.802;2022-12-29T04:34:24;9.43;;;8.52;;
20880;SDS011;10600;53.096;8.802;2022-12-29T04:35:24;9.57;;;8.35;;
20880;SDS011;10600;53.096;8.802;2022-12-29T04:36:25;8.90;;;7.97;;
20880;SDS011;10600;53.096;8.802;2022-12-29T04:37:26;8.55;;;7.75;;
20880;SDS011;10600;53.096;8.802;2022-12-29T04:38:27;8.60;;;7.78;;
20880;SDS011;10600;53.096;8.802;2022-12-29T04:39:27;8.02;;;7.32;;
20880;SDS011;10600;53.096;8.802;2022-12-29T04:40:28;9.27;;;7.32;;
20880;SDS011;10600;53.096;8.802;2022-12-29T04:41:29;8.20;;;7.43;;
20880;SDS011;10600;53.096;8.802;2022-12-29T04:42:29;8.82;;;8.00;;
20880;SDS011;10600;53.096;8.802;2022-12-29T04:43:30;8.07;;;7.28;;
20880;SDS011;10600;53.096;8.802;2022-12-29T04:44:31;8.65;;;7.85;;
20880;SDS011;10600;53.096;8.802;2022-12-29T04:45:31;8.05;;;7.25;;
20880;SDS011;10600;53.096;8.802;2022-12-29T04:46:32;7.55;;;6.47;;
20880;SDS011;10600;53.096;8.802;2022-12-29T04:47:33;8.00;;;7.30;;
20880;SDS011;10600;53.096;8.802;2022-12-29T04:48:33;7.90;;;7.20;;
20880;SDS011;10600;53.096;8.802;2022-12-29T04:49:34;8.93;;;6.75;;
20880;SDS011;10600;53.096;8.802;2022-12-29T04:50:34;7.47;;;6.70;;
20880;SDS011;10600;53.096;8.802;2022-12-29T04:51:35;8.18;;;6.75;;
20880;SDS011;10600;53.096;8.802;2022-12-29T04:52:36;7.63;;;6.93;;
20880;SDS011;10600;53.096;8.802;2022-12-29T04:53:37;7.00;;;6.30;;
20880;SDS011;10600;53.096;8.802;2022-12-29T04:54:37;6.82;;;6.25;;
20880;SDS011;10600;53.096;8.802;2022-12-29T04:55:38;6.03;;;5.50;;
20880;SDS011;10600;53.096;8.802;2022-12-29T04:56:39;6.20;;;5.70;;
20880;SDS011;10600;53.096;8.802;2022-12-29T04:57:39;6.28;;;5.70;;
20880;SDS011;10600;53.096;8.802;2022-12-29T04:58:40;6.75;;;5.78;;
20880;SDS011;10600;53.096;8.802;2022-12-29T04:59:41;7.05;;;5.57;;
20880;SDS011;10600;53.096;8.802;2022-12-29T05:00:41;6.32;;;5.13;;
20880;SDS011;10600;53.096;8.802;2022-12-29T05:01:42;5.10;;;4.70;;
20880;SDS011;10600;53.096;8.802;2022-12-29T05:02:43;5.63;;;5.07;;
20880;SDS011;10600;53.096;8.802;2022-12-29T05:03:43;5.13;;;4.63;;
20880;SDS011;10600;53.096;8.802;2022-12-29T05:04:44;5.13;;;4.63;;
20880;SDS011;10600;53.096;8.802;2022-12-29T05:05:45;4.95;;;4.50;;
20880;SDS011;10600;53.096;8.802;2022-12-29T05:06:46;6.15;;;4.90;;
20880;SDS011;10600;53.096;8.802;2022-12-29T05:07:47;4.68;;;4.30;;
20880;SDS011;10600;53.096;8.802;2022-12-29T05:08:47;5.25;;;4.80;;
20880;SDS011;10600;53.096;8.802;2022-12-29T05:09:48;4.70;;;4.18;;
20880;SDS011;10600;53.096;8.802;2022-12-29T05:10:51;4.80;;;4.32;;
20880;SDS011;10600;53.096;8.802;2022-12-29T05:11:52;5.97;;;4.05;;
20880;SDS011;10600;53.096;8.802;2022-12-29T05:12:53;5.05;;;4.30;;
20880;SDS011;10600;53.096;8.802;2022-12-29T05:13:54;5.10;;;4.60;;
20880;SDS011;10600;53.096;8.802;2022-12-29T05:14:54;4.95;;;4.30;;
20880;SDS011;10600;53.096;8.802;2022-12-29T05:15:55;5.07;;;4.57;;
20880;SDS011;10600;53.096;8.802;2022-12-29T05:16:55;5.57;;;5.07;;
20880;SDS011;10600;53.096;8.802;2022-12-29T05:17:56;5.85;;;4.40;;
20880;SDS011;10600;53.096;8.802;2022-12-29T05:18:57;5.30;;;4.80;;
20880;SDS011;10600;53.096;8.802;2022-12-29T05:19:58;6.97;;;4.82;;
20880;SDS011;10600;53.096;8.802;2022-12-29T05:20:58;7.30;;;5.20;;
20880;SDS011;10600;53.096;8.802;2022-12-29T05:21:59;5.68;;;5.15;;
20880;SDS011;10600;53.096;8.802;2022-12-29T05:23:00;5.63;;;4.85;;
20880;SDS011;10600;53.096;8.802;2022-12-29T05:24:00;7.05;;;5.25;;
20880;SDS011;10600;53.096;8.802;2022-12-29T05:25:01;4.97;;;4.47;;
20880;SDS011;10600;53.096;8.802;2022-12-29T05:26:02;6.53;;;4.63;;
20880;SDS011;10600;53.096;8.802;2022-12-29T05:27:03;4.75;;;4.25;;
20880;SDS011;10600;53.096;8.802;2022-12-29T05:28:03;5.45;;;4.15;;
20880;SDS011;10600;53.096;8.802;2022-12-29T05:29:04;4.95;;;3.90;;
20880;SDS011;10600;53.096;8.802;2022-12-29T05:30:05;4.78;;;4.25;;
20880;SDS011;10600;53.096;8.802;2022-12-29T05:31:06;4.50;;;3.65;;
20880;SDS011;10600;53.096;8.802;2022-12-29T05:32:07;3.17;;;2.88;;
20880;SDS011;10600;53.096;8.802;2022-12-29T05:33:07;2.88;;;2.67;;
20880;SDS011;10600;53.096;8.802;2022-12-29T05:34:11;3.88;;;3.10;;
20880;SDS011;10600;53.096;8.802;2022-12-29T05:35:13;3.25;;;2.95;;
20880;SDS011;10600;53.096;8.802;2022-12-29T05:36:14;3.95;;;3.08;;
20880;SDS011;10600;53.096;8.802;2022-12-29T05:37:15;3.58;;;2.60;;
20880;SDS011;10600;53.096;8.802;2022-12-29T05:38:15;3.63;;;2.70;;
20880;SDS011;10600;53.096;8.802;2022-12-29T05:39:16;5.15;;;2.90;;
20880;SDS011;10600;53.096;8.802;2022-12-29T05:40:17;4.07;;;2.40;;
20880;SDS011;10600;53.096;8.802;2022-12-29T05:41:17;6.40;;;2.55;;
20880;SDS011;10600;53.096;8.802;2022-12-29T05:42:18;3.60;;;2.50;;
20880;SDS011;10600;53.096;8.802;2022-12-29T05:43:19;4.07;;;2.47;;
20880;SDS011;10600;53.096;8.802;2022-12-29T05:44:19;3.53;;;2.53;;
20880;SDS011;10600;53.096;8.802;2022-12-29T05:45:20;4.05;;;2.70;;
20880;SDS011;10600;53.096;8.802;2022-12-29T05:46:21;3.53;;;2.42;;
20880;SDS011;10600;53.096;8.802;2022-12-29T05:47:21;3.90;;;2.53;;
20880;SDS011;10600;53.096;8.802;2022-12-29T05:48:22;2.58;;;2.38;;
20880;SDS011;10600;53.096;8.802;2022-12-29T05:49:23;4.68;;;2.97;;
20880;SDS011;10600;53.096;8.802;2022-12-29T05:50:24;5.47;;;2.90;;
20880;SDS011;10600;53.096;8.802;2022-12-29T05:51:24;5.43;;;3.10;;
20880;SDS011;10600;53.096;8.802;2022-12-29T05:52:25;4.38;;;3.97;;
20880;SDS011;10600;53.096;8.802;2022-12-29T05:53:26;5.47;;;3.60;;
20880;SDS011;10600;53.096;8.802;2022-12-29T05:54:26;5.50;;;3.60;;
20880;SDS011;10600;53.096;8.802;2022-12-29T05:55:27;5.07;;;3.72;;
20880;SDS011;10600;53.096;8.802;2022-12-29T05:56:27;5.90;;;4.05;;
20880;SDS011;10600;53.096;8.802;2022-12-29T05:57:28;5.88;;;4.72;;
20880;SDS011;10600;53.096;8.802;2022-12-29T05:58:29;6.03;;;4.70;;
20880;SDS011;10600;53.096;8.802;2022-12-29T05:59:29;5.35;;;4.78;;
20880;SDS011;10600;53.096;8.802;2022-12-29T06:00:30;9.27;;;5.70;;
20880;SDS011;10600;53.096;8.802;2022-12-29T06:01:31;6.55;;;5.32;;
20880;SDS011;10600;53.096;8.802;2022-12-29T06:02:33;6.57;;;5.85;;
20880;SDS011;10600;53.096;8.802;2022-12-29T06:03:33;7.13;;;5.88;;
20880;SDS011;10600;53.096;8.802;2022-12-29T06:04:34;6.22;;;5.63;;
20880;SDS011;10600;53.096;8.802;2022-12-29T06:05:35;8.68;;;6.32;;
20880;SDS011;10600;53.096;8.802;2022-12-29T06:06:35;14.13;;;7.47;;
20880;SDS011;10600;53.096;8.802;2022-12-29T06:07:36;6.35;;;5.72;;
20880;SDS011;10600;53.096;8.802;2022-12-29T06:08:36;6.25;;;5.65;;
20880;SDS011;10600;53.096;8.802;2022-12-29T06:09:37;7.25;;;6.03;;
20880;SDS011;10600;53.096;8.802;2022-12-29T06:10:38;6.15;;;5.57;;
20880;SDS011;10600;53.096;8.802;2022-12-29T06:11:38;10.45;;;5.78;;
20880;SDS011;10600;53.096;8.802;2022-12-29T06:12:39;5.90;;;4.82;;
20880;SDS011;10600;53.096;8.802;2022-12-29T06:13:40;7.70;;;5.32;;
20880;SDS011;10600;53.096;8.802;2022-12-29T06:14:40;7.32;;;5.53;;
20880;SDS011;10600;53.096;8.802;2022-12-29T06:15:41;5.45;;;4.95;;
20880;SDS011;10600;53.096;8.802;2022-12-29T06:16:41;5.78;;;4.93;;
20880;SDS011;10600;53.096;8.802;2022-12-29T06:17:42;6.60;;;5.75;;
20880;SDS011;10600;53.096;8.802;2022-12-29T06:18:43;6.88;;;5.00;;
20880;SDS011;10600;53.096;8.802;2022-12-29T06:19:44;7.15;;;4.75;;
20880;SDS011;10600;53.096;8.802;2022-12-29T06:20:45;5.53;;;4.40;;
20880;SDS011;10600;53.096;8.802;2022-12-29T06:21:45;4.80;;;4.32;;
20880;SDS011;10600;53.096;8.802;2022-12-29T06:22:46;6.47;;;4.70;;
20880;SDS011;10600;53.096;8.802;2022-12-29T06:23:47;6.80;;;5.00;;
20880;SDS011;10600;53.096;8.802;2022-12-29T06:24:48;6.03;;;4.40;;
20880;SDS011;10600;53.096;8.802;2022-12-29T06:25:49;6.35;;;4.32;;
20880;SDS011;10600;53.096;8.802;2022-12-29T06:26:49;6.70;;;5.13;;
20880;SDS011;10600;53.096;8.802;2022-12-29T06:27:50;6.05;;;4.85;;
20880;SDS011;10600;53.096;8.802;2022-12-29T06:28:51;6.53;;;4.72;;
20880;SDS011;10600;53.096;8.802;2022-12-29T06:29:51;6.05;;;4.78;;
20880;SDS011;10600;53.096;8.802;2022-12-29T06:30:52;7.20;;;4.68;;
20880;SDS011;10600;53.096;8.802;2022-12-29T06:31:53;8.90;;;5.05;;
20880;SDS011;10600;53.096;8.802;2022-12-29T06:32:56;7.57;;;5.25;;
20880;SDS011;10600;53.096;8.802;2022-12-29T06:33:57;7.30;;;5.32;;
20880;SDS011;10600;53.096;8.802;2022-12-29T06:34:58;5.80;;;4.68;;
20880;SDS011;10600;53.096;8.802;2022-12-29T06:35:59;7.60;;;5.15;;
20880;SDS011;10600;53.096;8.802;2022-12-29T06:36:59;7.25;;;4.90;;
20880;SDS011;10600;53.096;8.802;2022-12-29T06:38:01;7.00;;;5.05;;
20880;SDS011;10600;53.096;8.802;2022-12-29T06:39:01;5.78;;;4.80;;
20880;SDS011;10600;53.096;8.802;2022-12-29T06:40:02;7.55;;;5.30;;
20880;SDS011;10600;53.096;8.802;2022-12-29T06:41:03;6.78;;;4.78;;
20880;SDS011;10600;53.096;8.802;2022-12-29T06:42:04;5.68;;;4.32;;
20880;SDS011;10600;53.096;8.802;2022-12-29T06:43:04;8.55;;;5.10;;
20880;SDS011;10600;53.096;8.802;2022-12-29T06:44:05;1.63;;;1.48;;
20880;SDS011;10600;53.096;8.802;2022-12-29T06:45:06;7.05;;;5.10;;
20880;SDS011;10600;53.096;8.802;2022-12-29T06:46:07;9.45;;;4.70;;
20880;SDS011;10600;53.096;8.802;2022-12-29T06:47:07;5.72;;;4.20;;
20880;SDS011;10600;53.096;8.802;2022-12-29T06:48:08;5.50;;;4.82;;
20880;SDS011;10600;53.096;8.802;2022-12-29T06:49:09;5.25;;;4.38;;
20880;SDS011;10600;53.096;8.802;2022-12-29T06:50:10;5.68;;;3.70;;
20880;SDS011;10600;53.096;8.802;2022-12-29T06:51:11;7.10;;;4.25;;
20880;SDS011;10600;53.096;8.802;2022-12-29T06:52:11;13.70;;;5.68;;
20880;SDS011;10600;53.096;8.802;2022-12-29T06:53:12;10.02;;;5.70;;
20880;SDS011;10600;53.096;8.802;2022-12-29T06:54:13;7.53;;;5.63;;
20880;SDS011;10600;53.096;8.802;2022-12-29T06:55:13;12.13;;;6.40;;